Lillian, AL (36549)

6:18 AM CDT on April 01, 2015 (GMT -0500)
www.LillianWeather.com | | Change Station
CLOSE
Current Station
Personal Weather Station
Location: Lillian, AL
Elevation: 56 ft
Nearby Weather Stations

Elev 56 ft 30.38 °N, 87.48 °W | Updated 4 seconds ago

Fog
Fog
60.1 °F
Feels Like 60.1 °F
N
0.0
Wind Variable Wind from WSW
Gusts 0.0 mph

Today
High -- | Low -- °F
--% Chance of Precip.
Yesterday
High -- | Low -- °F
Precip. -- in
6:39 AM 7:08 PM
Waxing Gibbous, 92% visible
Pressure 30.07 in
Visibility 7.0 miles
Clouds Few 1500 ft
Scattered Clouds 17000 ft
Mostly Cloudy 25000 ft
Dew Point 58 °F
Humidity 93%
Rainfall 0.00 in
Snow Depth Not available.
UV 0 out of 12
Pollen 10.60 out of 12
Air Quality Not available.
Flu Activity Not available.
METAR KNPA 011056Z 00000KT 7SM MIFG FEW015 SCT170 BKN250 17/16 A3006 RMK AO2 SLP181 T01670161 $

More Conditions Fewer Conditions

Pressure 30.07 in
Visibility 7.0 miles
Clouds Few 1500 ft
Scattered Clouds 17000 ft
Mostly Cloudy 25000 ft
Dew Point 58 °F
Humidity 93%
Rainfall 0.00 in
Snow Depth Not available.
UV 0 out of 12
Pollen 10.60 out of 12
Air Quality Not available.
Flu Activity Not available.
METAR KNPA 011056Z 00000KT 7SM MIFG FEW015 SCT170 BKN250 17/16 A3006 RMK AO2 SLP181 T01670161 $

More Conditions Fewer Conditions

10-Day Weather Forecast

Almanac

Astronomy

Apr. 01, 2015 Rise Set
Actual Time
Civil Twilight
Nautical Twilight
Astronomical Twilight
Moon
Length of Visible Light
Length of Day
Tomorrow will be .
, % of the Moon is Illuminated

Today's Extremes

State Highs State Lows

Community

WunderPhotos

Upload Photos

1,809,936 photos uploaded!

WunderBlogs® & News

Nearby

Air Quality

  Air Quality AQ Index Pollutant
Not available.

Snow Depth

Station Depth Elevation

Earthquake Activity

City Distance Mag. Time & Date
Minimum magnitude displayed is 2.5.

Coastal Water Temperatures

Place Temperature

Stations

Nearby Weather Stations

Station Location Temp. Windchill Dew Point Humidity Wind Precip. Elev Updated Type